»·PEaware :: AAL1061 KMIA-KMCO

AAL1061 :: KMIA-KMCO

FLIGHT INFORMATION

Flight Status: Arrived
Operator:
American Airlines
More flights by this operator :: More flights under this callsign
Pilot: Drew Leevy (13237)
Aircraft: BOEING 767-300
(B763)
More flights by this aircraft type
Origin: KMIA Miami Intl
United States
Destination: KMCO Orlando Intl
United States
More flights between these airports :: More routes between these airports
Route: HEDLY2 HEDLY J53 PHK BAIRN4
File this flight plan on PilotEdge
Remarks:
Altitude:
(Current/Filed)
23,000ft
Speed:
(Current/Filed)
134kts
Departed: 11-May-17 05:46 PM
Arrived: 11-May-17 06:24 PM
Distance/Time
Traveled:
167nm/0:37
Distance/Time
To Go:
Arrived

Flight Plot

Page will automatically refresh every two minutes.

Flight plan parsing failed; only flown route is shown


Map Options




Map Legend


Flown Route
Filed Route
Departure Airport
Arrival Airport
Navaid (VOR, NDB)
Fix

Horizontal Profiles

Position Reports

Time Latitude Longitude Heading Altitude Ground
Speed
11-May-17 17:31 25.798324 -80.282135 179 17ft 0kts
11-May-17 17:32 25.798324 -80.282135 179 17ft 0kts
11-May-17 17:33 25.798324 -80.282135 179 17ft 0kts
11-May-17 17:34 25.798324 -80.282135 179 17ft 0kts
11-May-17 17:35 25.798324 -80.282135 179 17ft 0kts
11-May-17 17:36 25.798324 -80.282135 179 17ft 0kts
11-May-17 17:37 25.798324 -80.282135 179 17ft 0kts
11-May-17 17:38 25.798324 -80.282135 179 17ft 0kts
11-May-17 17:39 25.798323 -80.282135 179 17ft 0kts
11-May-17 17:40 25.799337 -80.282137 180 17ft 6kts
11-May-17 17:41 25.799713 -80.281692 270 17ft 0kts
11-May-17 17:42 25.799590 -80.282884 268 17ft 9kts
11-May-17 17:43 25.799390 -80.286585 267 17ft 17kts
11-May-17 17:44 25.799001 -80.296116 266 17ft 30kts
11-May-17 17:45 25.799658 -80.299706 314 17ft 0kts
11-May-17 17:46 25.799658 -80.299706 314 17ft 0kts
11-May-17 17:47 25.799705 -80.299762 312 17ft 1kts
11-May-17 17:48 25.800860 -80.297456 89 17ft 77kts
11-May-17 17:49 25.804190 -80.238478 87 2652ft 269kts
11-May-17 17:50 25.822997 -80.163320 34 6495ft 270kts
11-May-17 17:51 25.896600 -80.169279 348 10652ft 287kts
11-May-17 17:52 25.980037 -80.213050 332 13363ft 374kts
11-May-17 17:53 26.066146 -80.285696 319 17479ft 399kts
11-May-17 17:54 26.149196 -80.358913 322 22020ft 392kts
11-May-17 17:55 26.235308 -80.430324 334 23996ft 388kts
11-May-17 17:56 26.341120 -80.481855 336 24037ft 435kts
11-May-17 17:57 26.451498 -80.534469 337 24020ft 434kts
11-May-17 17:58 26.562521 -80.587396 337 24019ft 434kts
11-May-17 17:59 26.673560 -80.639865 337 24018ft 434kts
11-May-17 18:00 26.784103 -80.691513 340 24017ft 434kts
11-May-17 18:01 26.898327 -80.733007 341 24019ft 434kts
11-May-17 18:02 27.013096 -80.774450 341 24018ft 434kts
11-May-17 18:03 27.118378 -80.812517 341 24023ft 434kts
11-May-17 18:04 27.221545 -80.849893 341 23317ft 416kts
11-May-17 18:05 27.327641 -80.888405 341 21872ft 391kts
11-May-17 18:06 27.429410 -80.925417 342 20461ft 384kts
11-May-17 18:07 27.530336 -80.962192 342 19141ft 379kts
11-May-17 18:08 27.629829 -80.998514 342 17939ft 376kts
11-May-17 18:09 27.728595 -81.034610 340 16853ft 376kts
11-May-17 18:10 27.828938 -81.071415 339 15852ft 385kts
11-May-17 18:11 27.931194 -81.108989 341 14859ft 389kts
11-May-17 18:12 28.033246 -81.143648 345 13688ft 372kts
11-May-17 18:13 28.128040 -81.175327 345 12688ft 348kts
11-May-17 18:14 28.218712 -81.187295 0 11855ft 318kts
11-May-17 18:15 28.304309 -81.187492 1 11011ft 300kts
11-May-17 18:16 28.385358 -81.187505 1 10176ft 286kts
11-May-17 18:17 28.463265 -81.187505 1 9345ft 275kts
11-May-17 18:18 28.538108 -81.187506 1 8560ft 264kts
11-May-17 18:19 28.609967 -81.187506 1 7724ft 252kts
11-May-17 18:20 28.668169 -81.214800 288 6222ft 251kts
11-May-17 18:21 28.653435 -81.290897 253 4723ft 245kts
11-May-17 18:22 28.606807 -81.335889 167 3213ft 235kts
11-May-17 18:23 28.547198 -81.328497 179 2205ft 198kts
11-May-17 18:24 28.495915 -81.327507 182 1087ft 174kts
11-May-17 18:25 28.451010 -81.326972 184 211ft 148kts
11-May-17 18:26 28.430595 -81.324044 91 107ft 15kts
11-May-17 18:27 28.430051 -81.318507 123 107ft 21kts
11-May-17 18:28 28.428797 -81.316245 123 107ft 0kts
11-May-17 18:29 28.428797 -81.316245 123 107ft 0kts

Navigation Log

Ident Type
Flight plan parsing failed, navigation log unavailable